Time;durP1;ratioP1;P1;durP2;ratioP2;P2;SDS_P1;SDS_P2;PMS_P1;PMS_P2;Temp;Humidity;BMP_temperature;BMP_pressure;BME280_temperature;BME280_humidity;BME280_pressure;Samples;Min_cycle;Max_cycle;Signal;HPM_P1;HPM_P2
2022/12/25 00:02:03;;;;;;;55.60;17.52;;;6.20;99.90;;;;;;5064612;28;20086;-78
2022/12/25 00:04:28;;;;;;;63.75;17.17;;;6.20;99.90;;;;;;5058736;28;20554;-76
2022/12/25 00:06:54;;;;;;;71.45;17.63;;;6.20;99.90;;;;;;5064496;28;20052;-76
2022/12/25 00:09:20;;;;;;;62.03;17.23;;;6.20;99.90;;;;;;5054577;28;20048;-79
2022/12/25 00:11:46;;;;;;;53.58;16.30;;;6.10;99.90;;;;;;5042874;28;20060;-77
2022/12/25 00:14:11;;;;;;;63.65;16.50;;;6.10;99.90;;;;;;5067416;28;20055;-77
2022/12/25 00:16:37;;;;;;;57.78;17.52;;;6.10;99.90;;;;;;5064197;28;20131;-78
2022/12/25 00:19:03;;;;;;;62.00;18.45;;;6.10;99.90;;;;;;5061609;28;20032;-78
2022/12/25 00:21:28;;;;;;;59.50;17.25;;;6.10;99.90;;;;;;5042898;28;20049;-78
2022/12/25 00:23:56;;;;;;;62.10;17.60;;;6.10;99.90;;;;;;5060177;28;20037;-78
2022/12/25 00:26:21;;;;;;;57.07;17.50;;;6.20;99.90;;;;;;5040810;28;20052;-78
2022/12/25 00:28:52;;;;;;;54.15;17.92;;;6.20;99.90;;;;;;5063455;28;20295;-78
2022/12/25 00:31:17;;;;;;;53.40;17.75;;;6.20;99.90;;;;;;5065543;28;20561;-78
2022/12/25 00:33:45;;;;;;;53.30;17.45;;;6.10;99.90;;;;;;5036531;28;20041;-78
2022/12/25 00:36:13;;;;;;;52.28;17.60;;;6.00;99.90;;;;;;5047918;28;20052;-78
2022/12/25 00:38:39;;;;;;;51.83;16.35;;;6.00;99.90;;;;;;5064133;28;20037;-78
2022/12/25 00:44:12;;;;;;;49.97;15.90;;;6.10;99.90;;;;;;5057646;28;20037;-77
2022/12/25 00:46:38;;;;;;;60.20;17.48;;;6.10;99.90;;;;;;5063636;28;20044;-78
2022/12/25 00:49:04;;;;;;;57.08;16.92;;;6.10;99.90;;;;;;5058388;28;20474;-77
2022/12/25 00:51:30;;;;;;;49.63;16.77;;;6.10;99.90;;;;;;5048422;28;20142;-77
2022/12/25 00:53:56;;;;;;;52.10;17.25;;;6.10;99.90;;;;;;5062389;28;20048;-78
2022/12/25 00:56:22;;;;;;;59.28;16.92;;;5.90;99.90;;;;;;5047245;28;20103;-78
2022/12/25 00:58:47;;;;;;;53.88;15.85;;;6.00;99.90;;;;;;5075391;28;20033;-78
2022/12/25 01:01:13;;;;;;;58.92;17.42;;;5.90;99.90;;;;;;5067029;28;20045;-78
2022/12/25 01:03:39;;;;;;;50.83;16.75;;;5.90;99.90;;;;;;5074032;28;20036;-79
2022/12/25 01:06:06;;;;;;;53.80;17.00;;;6.00;99.90;;;;;;5070614;28;20376;-79
2022/12/25 01:08:38;;;;;;;62.10;17.80;;;6.10;99.90;;;;;;5052672;28;20041;-80
2022/12/25 01:11:06;;;;;;;59.58;17.80;;;6.10;99.90;;;;;;5041531;28;20036;-79
2022/12/25 01:13:33;;;;;;;60.65;18.05;;;6.20;99.90;;;;;;5056353;28;20071;-80
2022/12/25 01:16:09;;;;;;;60.67;18.45;;;6.40;99.90;;;;;;5078089;28;20598;-80
2022/12/25 01:18:36;;;;;;;56.35;18.60;;;6.40;99.90;;;;;;5071390;28;20041;-79
2022/12/25 01:21:16;;;;;;;66.43;18.92;;;6.50;99.90;;;;;;5041458;28;20052;-79
2022/12/25 01:23:43;;;;;;;58.40;17.83;;;6.60;99.90;;;;;;5050206;28;20451;-78
2022/12/25 01:26:10;;;;;;;51.83;17.13;;;6.60;99.90;;;;;;5058558;28;20051;-78
2022/12/25 01:28:36;;;;;;;45.92;15.82;;;6.60;99.90;;;;;;5029039;28;20051;-78
2022/12/25 01:31:03;;;;;;;57.83;19.88;;;6.80;99.90;;;;;;5062743;28;20041;-78
2022/12/25 01:33:29;;;;;;;58.63;17.55;;;6.80;99.90;;;;;;5057930;28;20374;-78
2022/12/25 01:35:54;;;;;;;52.55;17.65;;;6.90;99.90;;;;;;5061128;28;20043;-78
2022/12/25 01:38:20;;;;;;;58.15;16.33;;;6.90;99.90;;;;;;5061839;28;20036;-78
2022/12/25 01:40:46;;;;;;;55.33;17.33;;;7.00;99.90;;;;;;5062795;28;20032;-78
2022/12/25 01:43:27;;;;;;;58.78;17.27;;;7.00;99.90;;;;;;5060604;28;20124;-78
2022/12/25 01:45:53;;;;;;;56.20;18.13;;;7.10;99.90;;;;;;5061738;28;20040;-78
2022/12/25 01:48:22;;;;;;;52.25;16.42;;;7.10;99.90;;;;;;5050251;28;20524;-78
2022/12/25 01:50:58;;;;;;;42.55;16.77;;;7.00;99.90;;;;;;5047167;28;20059;-79
2022/12/25 01:53:24;;;;;;;59.25;17.30;;;7.10;99.90;;;;;;5062055;28;20041;-78
2022/12/25 01:55:56;;;;;;;56.78;17.10;;;7.10;99.90;;;;;;5060077;28;20475;-78
2022/12/25 01:58:22;;;;;;;50.92;16.67;;;7.10;99.90;;;;;;5062811;28;20170;-78
2022/12/25 02:00:50;;;;;;;51.55;17.10;;;7.10;99.90;;;;;;5065180;28;20551;-78
2022/12/25 02:03:16;;;;;;;52.22;15.93;;;7.10;99.90;;;;;;5063922;28;20090;-78
2022/12/25 02:05:42;;;;;;;48.67;16.15;;;7.10;99.90;;;;;;5065424;28;20033;-78
2022/12/25 02:08:10;;;;;;;50.78;17.38;;;7.20;99.90;;;;;;5062535;28;20070;-78
2022/12/25 02:10:38;;;;;;;50.72;16.23;;;7.20;99.90;;;;;;5047456;28;20104;-79
2022/12/25 02:13:04;;;;;;;53.85;16.35;;;7.20;99.90;;;;;;5044315;28;20041;-77
2022/12/25 02:15:49;;;;;;;53.90;17.17;;;7.20;99.90;;;;;;5061293;28;20090;-76
2022/12/25 02:18:32;;;;;;;51.95;15.90;;;7.30;99.90;;;;;;5057824;28;20056;-77
2022/12/25 02:21:33;;;;;;;47.58;15.30;;;7.20;99.90;;;;;;5059634;28;20102;-78
2022/12/25 02:24:36;;;;;;;53.13;16.45;;;7.20;99.90;;;;;;5055617;28;20048;-77
2022/12/25 02:27:35;;;;;;;43.97;14.43;;;7.30;99.90;;;;;;5058802;28;20086;-77
2022/12/25 02:30:09;;;;;;;58.03;16.23;;;7.30;99.90;;;;;;4988944;28;20048;-77
2022/12/25 02:34:01;;;;;;;50.10;16.10;;;7.30;99.90;;;;;;5061617;28;20037;-78
2022/12/25 02:35:41;;;;;;;40.05;14.80;;;7.20;99.90;;;;;;5069200;28;20044;-78
2022/12/25 02:38:30;;;;;;;45.88;16.48;;;7.30;99.90;;;;;;5065130;28;20124;-78
2022/12/25 02:41:01;;;;;;;50.88;15.35;;;7.20;99.90;;;;;;5063161;28;20485;-77
2022/12/25 03:08:51;;;;;;;48.75;15.88;;;7.60;99.90;;;;;;5087580;28;20048;-80
2022/12/25 03:11:32;;;;;;;53.45;15.77;;;7.60;99.90;;;;;;5066178;28;20048;-80
2022/12/25 03:16:54;;;;;;;40.90;15.00;;;7.60;99.90;;;;;;5065988;28;20049;-78
2022/12/25 03:27:46;;;;;;;38.08;14.90;;;7.60;99.90;;;;;;5067140;28;20045;-78
2022/12/25 03:33:11;;;;;;;42.60;17.00;;;7.60;99.90;;;;;;5072230;28;20124;-78
2022/12/25 03:35:46;;;;;;;44.40;17.50;;;7.70;99.90;;;;;;5076127;28;20461;-78
2022/12/25 04:36:54;;;;;;;39.72;17.55;;;8.20;99.90;;;;;;5080471;28;20044;-79
2022/12/25 04:39:20;;;;;;;37.40;16.63;;;8.20;99.90;;;;;;5078828;28;20059;-80
2022/12/25 04:41:45;;;;;;;50.30;18.65;;;8.20;99.90;;;;;;5058099;28;20041;-79
2022/12/25 04:44:11;;;;;;;40.70;18.00;;;8.20;99.90;;;;;;5074295;28;20047;-79
2022/12/25 04:46:37;;;;;;;42.67;17.63;;;8.20;99.90;;;;;;5072344;28;20052;-79
2022/12/25 04:49:02;;;;;;;47.03;17.90;;;8.30;99.90;;;;;;5075861;28;20041;-79
2022/12/25 04:51:28;;;;;;;43.28;19.23;;;8.30;99.90;;;;;;5078582;28;20470;-79
2022/12/25 04:53:54;;;;;;;44.50;18.48;;;8.30;99.90;;;;;;5083516;28;20043;-79
2022/12/25 04:56:20;;;;;;;44.92;19.33;;;8.30;99.90;;;;;;5073624;28;20062;-79
2022/12/25 04:58:46;;;;;;;41.63;18.88;;;8.40;99.90;;;;;;5067871;28;20495;-78
2022/12/25 05:01:12;;;;;;;46.25;19.17;;;8.40;99.90;;;;;;5068189;28;20490;-78
2022/12/25 05:03:38;;;;;;;41.65;18.92;;;8.40;99.90;;;;;;5073971;28;20043;-79
2022/12/25 05:06:05;;;;;;;43.63;19.45;;;8.40;99.90;;;;;;5062894;28;20045;-80
2022/12/25 05:08:32;;;;;;;41.83;19.30;;;8.30;99.90;;;;;;5076627;28;20037;-80
2022/12/25 05:10:58;;;;;;;41.47;20.23;;;8.40;99.90;;;;;;5072779;28;20055;-80
2022/12/25 05:13:24;;;;;;;43.58;21.23;;;8.40;99.90;;;;;;5085715;28;20037;-81
2022/12/25 05:15:50;;;;;;;45.63;20.85;;;8.40;99.90;;;;;;5033742;28;20192;-81
2022/12/25 05:18:16;;;;;;;43.90;21.02;;;8.50;99.90;;;;;;5071365;28;20405;-81
2022/12/25 05:20:42;;;;;;;42.13;20.20;;;8.50;99.90;;;;;;5071031;28;20062;-81
2022/12/25 05:23:11;;;;;;;39.72;20.08;;;8.40;99.90;;;;;;5070335;28;20114;-81
2022/12/25 05:25:39;;;;;;;44.50;20.13;;;8.50;99.90;;;;;;5065297;28;20041;-81
2022/12/25 05:28:06;;;;;;;45.15;20.77;;;8.50;99.90;;;;;;5060724;28;20047;-82
2022/12/25 05:30:33;;;;;;;35.67;18.42;;;8.50;99.90;;;;;;5046048;28;20043;-82
2022/12/25 05:32:58;;;;;;;39.00;18.42;;;8.50;99.90;;;;;;5065236;28;20098;-82
2022/12/25 05:35:24;;;;;;;37.33;20.08;;;8.50;99.90;;;;;;5039309;28;20056;-82
2022/12/25 05:37:50;;;;;;;40.35;18.13;;;8.50;99.90;;;;;;5059096;28;20040;-82
2022/12/25 05:40:15;;;;;;;39.33;17.70;;;8.50;99.90;;;;;;5062350;28;20047;-82
2022/12/25 05:42:41;;;;;;;35.30;17.83;;;8.60;99.90;;;;;;5074590;28;20045;-81
2022/12/25 05:45:07;;;;;;;33.70;17.30;;;8.60;99.90;;;;;;5073034;28;20602;-80
2022/12/25 05:47:33;;;;;;;30.42;17.17;;;8.60;99.90;;;;;;5063372;28;20051;-80
2022/12/25 05:49:58;;;;;;;30.80;17.20;;;8.60;99.90;;;;;;5079092;28;20058;-80
2022/12/25 05:52:24;;;;;;;37.42;17.90;;;8.60;99.90;;;;;;5078613;28;20190;-80
2022/12/25 05:54:49;;;;;;;31.85;17.50;;;8.60;99.90;;;;;;5078309;28;20045;-80
2022/12/25 05:57:15;;;;;;;41.95;17.83;;;8.60;99.90;;;;;;5070763;28;20094;-80
2022/12/25 05:59:41;;;;;;;33.03;17.45;;;8.60;99.90;;;;;;5071620;28;20045;-80
2022/12/25 06:02:06;;;;;;;39.72;18.90;;;8.60;99.90;;;;;;5069626;28;20044;-79
2022/12/25 06:04:32;;;;;;;35.28;18.05;;;8.60;99.90;;;;;;5031902;28;21878;-78
2022/12/25 06:06:58;;;;;;;34.30;17.58;;;8.60;99.90;;;;;;5068800;28;20114;-78
2022/12/25 06:09:23;;;;;;;30.08;16.77;;;8.50;99.90;;;;;;5067041;28;20055;-78
2022/12/25 06:11:49;;;;;;;31.58;17.83;;;8.60;99.90;;;;;;5050663;28;20048;-78
2022/12/25 06:14:15;;;;;;;35.28;15.80;;;8.70;99.90;;;;;;5066386;28;20418;-79
2022/12/25 06:16:40;;;;;;;32.80;15.20;;;8.60;99.90;;;;;;5048324;28;20053;-79
2022/12/25 06:19:06;;;;;;;31.83;15.55;;;8.60;99.90;;;;;;5065512;28;20097;-79
2022/12/25 06:21:32;;;;;;;35.35;15.95;;;8.60;99.90;;;;;;5053493;28;20083;-79
2022/12/25 06:24:01;;;;;;;34.08;15.27;;;8.70;99.90;;;;;;5052741;28;20072;-79
2022/12/25 06:26:26;;;;;;;34.70;15.35;;;8.60;99.90;;;;;;5056743;28;20394;-79
2022/12/25 06:28:52;;;;;;;33.10;14.63;;;8.60;99.90;;;;;;5073243;28;20036;-78
2022/12/25 06:31:21;;;;;;;29.73;14.57;;;8.60;99.90;;;;;;5037700;28;20098;-79
2022/12/25 06:33:47;;;;;;;23.90;14.02;;;8.50;99.90;;;;;;5047142;28;20059;-79
2022/12/25 06:36:19;;;;;;;31.23;14.43;;;8.60;99.90;;;;;;5071920;28;20047;-79
2022/12/25 06:38:45;;;;;;;30.38;13.23;;;8.60;99.90;;;;;;5076428;28;20044;-80
2022/12/25 06:41:14;;;;;;;23.38;13.52;;;8.50;99.90;;;;;;5070425;28;20376;-79
2022/12/25 06:43:40;;;;;;;29.08;13.95;;;8.50;99.90;;;;;;5064177;28;20053;-79
2022/12/25 06:46:11;;;;;;;24.77;12.60;;;8.50;99.90;;;;;;5070913;28;20120;-79
2022/12/25 06:48:38;;;;;;;23.05;12.32;;;8.50;99.90;;;;;;5074716;28;20127;-79
2022/12/25 06:51:06;;;;;;;24.52;12.55;;;8.40;99.90;;;;;;5078588;28;20047;-79
2022/12/25 06:53:32;;;;;;;22.00;11.90;;;8.50;99.90;;;;;;5075264;28;20029;-80
2022/12/25 06:56:05;;;;;;;19.05;10.70;;;8.40;99.90;;;;;;5074514;28;20350;-79
2022/12/25 06:58:31;;;;;;;27.60;11.63;;;8.40;99.90;;;;;;5059487;28;20501;-79
2022/12/25 07:00:57;;;;;;;20.10;11.68;;;8.40;99.90;;;;;;5073860;28;20032;-78
2022/12/25 07:03:27;;;;;;;22.15;10.93;;;8.40;99.90;;;;;;5050578;28;20048;-79
2022/12/25 07:05:53;;;;;;;22.50;11.45;;;8.40;99.90;;;;;;5062729;28;20132;-79
2022/12/25 07:08:18;;;;;;;20.63;11.05;;;8.30;99.90;;;;;;5046979;28;20492;-78
2022/12/25 07:10:44;;;;;;;20.98;11.32;;;8.30;99.90;;;;;;5055290;28;20120;-80
2022/12/25 07:13:09;;;;;;;23.98;10.77;;;8.30;99.90;;;;;;5072529;28;20036;-79
2022/12/25 07:15:35;;;;;;;23.63;10.93;;;8.30;99.90;;;;;;5070408;28;20049;-79
2022/12/25 07:18:01;;;;;;;28.83;11.77;;;8.30;99.90;;;;;;5070935;28;20087;-80
2022/12/25 07:20:28;;;;;;;20.90;11.00;;;8.20;99.90;;;;;;5052648;28;20773;-81
2022/12/25 07:22:54;;;;;;;22.17;11.25;;;8.20;99.90;;;;;;5066519;28;20048;-80
2022/12/25 07:25:20;;;;;;;20.80;11.38;;;8.20;99.90;;;;;;5064491;28;20033;-79
2022/12/25 07:27:46;;;;;;;17.17;10.43;;;8.30;99.90;;;;;;5065593;28;20116;-79
2022/12/25 07:30:12;;;;;;;22.75;10.60;;;8.30;99.90;;;;;;5071943;28;20041;-80
2022/12/25 07:32:37;;;;;;;23.17;10.65;;;8.30;99.90;;;;;;5071212;28;20048;-79
2022/12/25 07:35:03;;;;;;;22.05;10.25;;;8.30;99.90;;;;;;5071188;28;20048;-80
2022/12/25 07:37:29;;;;;;;22.98;10.55;;;8.30;99.90;;;;;;5054505;28;20051;-79
2022/12/25 07:39:54;;;;;;;24.77;10.27;;;8.20;99.90;;;;;;5068732;28;20087;-77
2022/12/25 07:42:20;;;;;;;23.63;10.68;;;8.20;99.90;;;;;;5068205;28;20087;-78
2022/12/25 07:44:46;;;;;;;20.60;10.18;;;8.30;99.90;;;;;;5052098;28;22257;-77
2022/12/25 07:47:13;;;;;;;22.40;10.63;;;8.20;99.90;;;;;;5051667;28;20143;-78
2022/12/25 07:49:39;;;;;;;26.50;11.65;;;8.20;99.90;;;;;;5068720;28;20040;-78
2022/12/25 07:52:04;;;;;;;22.30;10.93;;;8.30;99.90;;;;;;5053340;28;20064;-78
2022/12/25 07:54:30;;;;;;;18.17;10.63;;;8.30;99.90;;;;;;5065951;28;20119;-78
2022/12/25 07:56:56;;;;;;;22.45;11.10;;;8.40;99.90;;;;;;5058414;28;20478;-79
2022/12/25 07:59:21;;;;;;;18.55;10.52;;;8.40;99.90;;;;;;5070821;28;20223;-79
2022/12/25 08:01:48;;;;;;;20.08;10.70;;;8.40;99.90;;;;;;5074390;28;20074;-78
2022/12/25 08:04:14;;;;;;;21.17;10.10;;;8.50;99.90;;;;;;5082814;28;20056;-79
2022/12/25 08:06:40;;;;;;;20.27;10.68;;;8.50;99.90;;;;;;5073875;28;20045;-78
2022/12/25 08:09:08;;;;;;;24.98;11.57;;;8.50;99.90;;;;;;5070466;28;20039;-78
2022/12/25 08:11:34;;;;;;;17.23;9.60;;;8.60;99.90;;;;;;5065943;28;20037;-78
2022/12/25 08:14:00;;;;;;;19.95;10.70;;;8.60;99.90;;;;;;5080412;28;20044;-77
2022/12/25 08:16:25;;;;;;;18.70;9.93;;;8.60;99.90;;;;;;5075432;28;20037;-78
2022/12/25 08:18:52;;;;;;;20.08;9.82;;;8.70;99.90;;;;;;5055115;28;20498;-78
2022/12/25 08:21:17;;;;;;;17.02;9.75;;;8.70;99.90;;;;;;5057588;28;20047;-77
2022/12/25 08:23:46;;;;;;;17.42;10.02;;;8.80;99.90;;;;;;5070579;28;20045;-80
2022/12/25 08:26:17;;;;;;;16.02;9.77;;;8.80;99.90;;;;;;5054337;28;20044;-78
2022/12/25 08:28:43;;;;;;;17.67;10.05;;;8.80;99.90;;;;;;5052585;28;20406;-77
2022/12/25 08:31:29;;;;;;;21.08;10.85;;;8.70;99.90;;;;;;5068400;28;20037;-78
2022/12/25 08:33:57;;;;;;;19.63;10.00;;;8.80;99.90;;;;;;5065983;28;20040;-76
2022/12/25 08:36:23;;;;;;;16.70;9.73;;;8.90;99.90;;;;;;5071607;28;20055;-79
2022/12/25 08:38:49;;;;;;;18.60;9.57;;;8.90;99.90;;;;;;5059874;28;20036;-79
2022/12/25 08:41:16;;;;;;;17.48;10.23;;;8.90;99.90;;;;;;5056732;28;20380;-80
2022/12/25 08:43:42;;;;;;;17.48;10.38;;;8.90;99.90;;;;;;5070854;28;20083;-85
2022/12/25 08:46:08;;;;;;;18.40;10.05;;;8.90;99.90;;;;;;5037276;28;20064;-82
2022/12/25 08:48:34;;;;;;;16.92;10.02;;;8.90;99.90;;;;;;5070318;28;20127;-79
2022/12/25 08:51:00;;;;;;;13.63;9.50;;;9.00;99.90;;;;;;5048153;28;20050;-74
2022/12/25 08:53:26;;;;;;;16.85;9.60;;;8.90;99.90;;;;;;5072707;28;20044;-80
2022/12/25 08:56:03;;;;;;;18.25;10.75;;;9.00;99.90;;;;;;5079918;28;20097;-78
2022/12/25 08:58:29;;;;;;;19.23;10.45;;;9.00;99.90;;;;;;5055461;28;20048;-80
2022/12/25 09:00:55;;;;;;;21.02;9.65;;;9.00;99.90;;;;;;5054059;28;20059;-79
2022/12/25 09:03:21;;;;;;;15.25;9.50;;;9.00;99.90;;;;;;5071756;28;20059;-79
2022/12/25 09:05:47;;;;;;;19.70;10.15;;;9.00;99.90;;;;;;5036586;28;20051;-79
2022/12/25 09:08:13;;;;;;;17.23;10.00;;;9.00;99.90;;;;;;5057865;28;20049;-79
2022/12/25 09:10:39;;;;;;;17.80;10.60;;;9.00;99.90;;;;;;5067874;28;20490;-80
2022/12/25 09:13:05;;;;;;;17.95;9.88;;;9.00;99.90;;;;;;5068654;28;20090;-80
2022/12/25 09:15:30;;;;;;;19.60;10.10;;;9.00;99.90;;;;;;5075871;28;20037;-79
2022/12/25 09:17:56;;;;;;;19.77;10.15;;;9.10;99.90;;;;;;5066394;28;20493;-79
2022/12/25 09:20:22;;;;;;;17.60;9.88;;;9.10;99.90;;;;;;5050522;28;20044;-79
2022/12/25 09:22:48;;;;;;;17.23;10.02;;;9.10;99.90;;;;;;5073252;28;20040;-79
2022/12/25 09:25:13;;;;;;;21.55;9.57;;;9.10;99.90;;;;;;5081745;28;20064;-80
2022/12/25 09:27:39;;;;;;;18.67;10.10;;;9.10;99.90;;;;;;5083667;28;20072;-81
2022/12/25 09:30:05;;;;;;;18.50;9.65;;;9.10;99.90;;;;;;5078257;28;20063;-79
2022/12/25 09:32:31;;;;;;;18.02;9.88;;;9.10;99.90;;;;;;5080052;28;20491;-80
2022/12/25 09:34:57;;;;;;;13.50;9.63;;;9.10;99.90;;;;;;5078609;28;20108;-79
2022/12/25 09:37:22;;;;;;;15.77;9.18;;;9.20;99.90;;;;;;5075587;28;20041;-79
2022/12/25 09:39:48;;;;;;;16.05;9.80;;;9.20;99.90;;;;;;5079958;28;20068;-79
2022/12/25 09:42:21;;;;;;;16.30;9.27;;;9.20;99.90;;;;;;5084754;28;20505;-79
2022/12/25 09:44:54;;;;;;;17.73;9.00;;;9.20;99.90;;;;;;5082379;28;20557;-79
2022/12/25 09:47:23;;;;;;;18.98;9.88;;;9.20;99.90;;;;;;5070463;28;20033;-79
2022/12/25 09:50:01;;;;;;;20.25;9.48;;;9.30;99.90;;;;;;5080567;28;20052;-79
2022/12/25 09:52:44;;;;;;;15.13;9.48;;;9.20;99.90;;;;;;5141712;27;20389;-49
2022/12/25 09:55:17;;;;;;;15.50;9.07;;;9.20;99.90;;;;;;5129884;28;20400;-55
2022/12/25 09:57:44;;;;;;;16.25;9.50;;;9.30;99.90;;;;;;5109537;28;20066;-54
2022/12/25 10:00:18;;;;;;;17.00;8.43;;;9.30;99.90;;;;;;5098130;28;20080;-51
2022/12/25 10:02:59;;;;;;;11.70;8.57;;;9.30;99.90;;;;;;5131429;28;20043;-51
2022/12/25 10:05:50;;;;;;;17.63;9.05;;;9.30;99.90;;;;;;5128875;28;20096;-53
2022/12/25 10:08:36;;;;;;;20.20;8.90;;;9.30;99.90;;;;;;5122460;28;20043;-51
2022/12/25 10:11:35;;;;;;;14.52;8.57;;;9.30;99.90;;;;;;5102273;28;20047;-51
2022/12/25 10:14:39;;;;;;;13.48;8.65;;;9.30;99.90;;;;;;5130261;28;20062;-51
2022/12/25 10:17:41;;;;;;;13.05;8.18;;;9.40;99.90;;;;;;5068637;28;20047;-53
2022/12/25 10:20:33;;;;;;;15.15;8.32;;;9.40;99.90;;;;;;5127701;28;20039;-54
2022/12/25 10:23:00;;;;;;;15.70;8.10;;;9.40;99.90;;;;;;5110421;28;20119;-54
2022/12/25 10:25:26;;;;;;;17.00;8.70;;;9.40;99.90;;;;;;5090154;28;20109;-53
2022/12/25 10:27:57;;;;;;;12.73;8.00;;;9.40;99.90;;;;;;5109053;28;20501;-54
2022/12/25 10:30:25;;;;;;;12.75;7.63;;;9.40;99.90;;;;;;5090246;28;20127;-54
2022/12/25 10:32:53;;;;;;;17.77;8.05;;;9.40;99.90;;;;;;5107367;28;20040;-52
2022/12/25 10:35:21;;;;;;;16.05;7.57;;;9.40;99.90;;;;;;5110559;28;20051;-54
2022/12/25 10:37:58;;;;;;;14.55;8.25;;;9.40;99.90;;;;;;5108054;28;20044;-53
2022/12/25 10:40:49;;;;;;;13.38;7.80;;;9.40;99.90;;;;;;5096469;28;20047;-52
2022/12/25 10:43:21;;;;;;;16.65;7.55;;;9.40;99.90;;;;;;5108056;28;20524;-52
2022/12/25 10:45:48;;;;;;;13.30;7.88;;;9.40;99.90;;;;;;5108604;28;20043;-54
2022/12/25 10:48:24;;;;;;;15.45;8.63;;;9.40;99.90;;;;;;5108479;28;20482;-55
2022/12/25 10:50:50;;;;;;;14.52;8.40;;;9.40;99.90;;;;;;5100607;28;20060;-54
2022/12/25 10:53:25;;;;;;;12.85;7.93;;;9.40;99.90;;;;;;5105968;28;20402;-54
2022/12/25 10:55:55;;;;;;;13.77;8.00;;;9.40;99.90;;;;;;5107930;28;20405;-54
2022/12/25 10:58:21;;;;;;;11.65;8.18;;;9.40;99.90;;;;;;5107154;28;20047;-52
2022/12/25 11:00:58;;;;;;;13.70;7.45;;;9.40;99.90;;;;;;5109953;28;20040;-54
2022/12/25 11:03:28;;;;;;;13.73;8.13;;;9.40;99.90;;;;;;5099159;28;20173;-52
2022/12/25 11:05:54;;;;;;;12.57;7.28;;;9.40;99.90;;;;;;5098079;28;20039;-54
2022/12/25 11:08:22;;;;;;;13.43;7.95;;;9.40;99.90;;;;;;5096756;28;20044;-54
2022/12/25 11:10:54;;;;;;;13.50;7.93;;;9.40;99.90;;;;;;5094433;28;20077;-54
2022/12/25 11:13:23;;;;;;;16.35;8.02;;;9.40;99.90;;;;;;5074449;28;20054;-54
2022/12/25 11:16:00;;;;;;;14.00;8.00;;;9.40;99.90;;;;;;5096143;28;20072;-54
2022/12/25 11:18:31;;;;;;;15.45;8.15;;;9.40;99.90;;;;;;5090817;28;20058;-54
2022/12/25 11:20:59;;;;;;;13.60;7.47;;;9.40;99.90;;;;;;5068272;28;20393;-54
2022/12/25 11:23:25;;;;;;;;;;;9.40;99.90;;;;;;5093232;28;20086;-49
2022/12/25 11:26:05;;;;;;;12.63;7.13;;;9.40;99.90;;;;;;5093291;28;19927;-52
2022/12/25 11:28:33;;;;;;;12.45;7.93;;;9.50;99.90;;;;;;5075144;28;20139;-54
2022/12/25 11:31:18;;;;;;;;;;;9.50;99.90;;;;;;5094906;28;20046;-51
2022/12/25 11:34:11;;;;;;;12.38;7.40;;;9.50;99.90;;;;;;5091659;28;20049;-54
2022/12/25 11:36:47;;;;;;;16.20;7.93;;;9.50;99.90;;;;;;5089046;28;20539;-52
2022/12/25 11:39:25;;;;;;;12.60;7.60;;;9.50;99.90;;;;;;5059458;28;20509;-53
2022/12/25 11:41:54;;;;;;;13.70;8.45;;;9.40;99.90;;;;;;5090035;28;20067;-52
2022/12/25 11:44:29;;;;;;;13.40;8.55;;;9.40;99.90;;;;;;5090645;28;20036;-54
2022/12/25 11:46:55;;;;;;;17.52;8.02;;;9.40;99.90;;;;;;5069223;28;20045;-52
2022/12/25 11:49:21;;;;;;;15.25;8.38;;;9.40;99.90;;;;;;5093723;28;20051;-52
2022/12/25 11:51:53;;;;;;;11.45;8.20;;;9.30;99.90;;;;;;5086347;28;20436;-52
2022/12/25 11:54:22;;;;;;;11.77;8.05;;;9.30;99.90;;;;;;5091791;28;20028;-55
2022/12/25 11:56:48;;;;;;;16.10;8.30;;;9.30;99.90;;;;;;5092687;28;20079;-51
2022/12/25 11:59:26;;;;;;;12.27;8.50;;;9.30;99.90;;;;;;5093345;28;20036;-50
2022/12/25 12:01:57;;;;;;;14.40;8.57;;;9.30;99.90;;;;;;5073069;28;20047;-54
2022/12/25 12:04:30;;;;;;;15.30;8.73;;;9.30;99.90;;;;;;5092289;28;20048;-52
2022/12/25 12:07:07;;;;;;;12.98;8.70;;;9.30;99.90;;;;;;5093726;28;20044;-52
2022/12/25 12:09:53;;;;;;;13.57;8.43;;;9.40;99.90;;;;;;5093069;28;20048;-54
2022/12/25 12:12:32;;;;;;;11.15;7.85;;;9.30;99.90;;;;;;5074326;28;20456;-50
2022/12/25 12:15:28;;;;;;;14.88;8.20;;;9.40;99.90;;;;;;5090672;28;20049;-55
2022/12/25 12:17:54;;;;;;;16.58;8.38;;;9.40;99.90;;;;;;5087497;28;20063;-53
2022/12/25 12:20:31;;;;;;;15.40;7.90;;;9.40;99.90;;;;;;5091586;28;20044;-51
2022/12/25 12:22:59;;;;;;;12.50;7.80;;;9.40;99.90;;;;;;5093289;28;20040;-50
2022/12/25 12:25:25;;;;;;;13.65;7.70;;;9.40;99.90;;;;;;5073066;28;20058;-50
2022/12/25 12:27:58;;;;;;;13.90;7.95;;;9.40;99.90;;;;;;5093583;28;20126;-50
2022/12/25 12:30:28;;;;;;;12.93;8.05;;;9.40;99.90;;;;;;5089887;28;20131;-50
2022/12/25 12:33:00;;;;;;;16.13;8.38;;;9.40;99.90;;;;;;5091888;28;20039;-54
2022/12/25 12:35:30;;;;;;;12.25;7.88;;;9.40;99.90;;;;;;5091522;28;20051;-54
2022/12/25 12:38:05;;;;;;;12.93;8.20;;;9.50;99.90;;;;;;5094000;28;20044;-54
2022/12/25 12:40:32;;;;;;;18.33;8.25;;;9.40;99.90;;;;;;5088470;28;20051;-54
2022/12/25 12:42:59;;;;;;;13.27;7.55;;;9.40;99.90;;;;;;5090821;28;20044;-54
2022/12/25 12:45:27;;;;;;;14.15;7.45;;;9.40;99.90;;;;;;5092203;28;20032;-51
2022/12/25 12:47:53;;;;;;;12.60;7.03;;;9.40;99.90;;;;;;5093788;28;20040;-51
2022/12/25 12:50:39;;;;;;;13.68;7.28;;;9.30;99.90;;;;;;5089393;28;20095;-54
2022/12/25 12:53:23;;;;;;;11.95;7.22;;;9.30;99.90;;;;;;5091904;28;20063;-54
2022/12/25 12:55:50;;;;;;;13.82;7.57;;;9.30;99.90;;;;;;5091733;28;20036;-54
2022/12/25 12:58:32;;;;;;;16.00;7.20;;;9.30;99.90;;;;;;5074971;28;20440;-55
2022/12/25 13:01:26;;;;;;;14.98;8.05;;;9.30;99.90;;;;;;5088861;28;20047;-55
2022/12/25 13:04:13;;;;;;;15.35;7.88;;;9.20;99.90;;;;;;5091664;28;20036;-55
2022/12/25 13:06:40;;;;;;;16.70;8.55;;;9.20;99.90;;;;;;5090758;28;20079;-52
2022/12/25 13:09:18;;;;;;;15.65;8.10;;;9.20;99.90;;;;;;5091649;28;20047;-55
2022/12/25 13:11:44;;;;;;;16.05;8.23;;;9.20;99.90;;;;;;5085241;28;20117;-54
2022/12/25 13:14:17;;;;;;;14.38;8.35;;;9.20;99.90;;;;;;5076506;28;20474;-55
2022/12/25 13:16:46;;;;;;;15.80;8.05;;;9.20;99.90;;;;;;5062775;28;20060;-54
2022/12/25 13:19:18;;;;;;;14.57;9.10;;;9.20;99.90;;;;;;5073582;28;20075;-55
2022/12/25 13:22:03;;;;;;;17.63;9.05;;;9.10;99.90;;;;;;5090333;28;20048;-54
2022/12/25 13:24:31;;;;;;;19.10;9.35;;;9.10;99.90;;;;;;5093293;28;20083;-55
2022/12/25 13:26:57;;;;;;;;;;;9.10;99.90;;;;;;5088590;28;20040;-54
2022/12/25 13:29:37;;;;;;;18.05;8.90;;;9.10;99.90;;;;;;5091741;28;20391;-55
2022/12/25 13:34:57;;;;;;;17.35;9.80;;;9.10;99.90;;;;;;4968932;23;20073;-55
2022/12/25 13:37:25;;;;;;;14.47;9.17;;;9.10;99.90;;;;;;5030203;28;20072;-51
2022/12/25 13:39:55;;;;;;;14.80;8.43;;;9.10;99.90;;;;;;5033271;28;20610;-53
2022/12/25 13:42:24;;;;;;;15.65;8.35;;;9.10;99.90;;;;;;5027098;28;20034;-53
2022/12/25 13:45:05;;;;;;;17.95;8.73;;;9.10;99.90;;;;;;5030319;28;20450;-54
2022/12/25 13:47:37;;;;;;;12.25;7.80;;;9.10;99.90;;;;;;5030015;28;20232;-53
2022/12/25 13:50:32;;;;;;;14.00;7.90;;;9.10;99.90;;;;;;5033186;28;20120;-54
2022/12/25 13:53:11;;;;;;;16.30;8.45;;;9.10;99.90;;;;;;5016577;28;21575;-53
2022/12/25 13:55:37;;;;;;;13.95;8.63;;;9.00;99.90;;;;;;5031913;28;20049;-54
2022/12/25 13:58:05;;;;;;;17.67;9.00;;;9.00;99.90;;;;;;5030144;28;20489;-53
2022/12/25 14:00:38;;;;;;;;;;;9.00;99.90;;;;;;5031459;28;20041;-50
2022/12/25 14:03:13;;;;;;;15.07;8.05;;;9.00;99.90;;;;;;5029096;28;19967;-53
2022/12/25 14:05:40;;;;;;;16.20;9.48;;;9.10;99.90;;;;;;5031083;28;20507;-54
2022/12/25 14:08:21;;;;;;;16.40;9.25;;;9.00;99.90;;;;;;5028756;28;20045;-54
2022/12/25 14:10:49;;;;;;;15.85;9.60;;;9.00;99.90;;;;;;5031686;28;20116;-55
2022/12/25 14:13:16;;;;;;;12.75;9.43;;;9.00;99.90;;;;;;5049352;22;20322;-55
2022/12/25 14:15:46;;;;;;;18.83;10.80;;;9.00;99.90;;;;;;5010979;28;20409;-55
2022/12/25 14:18:20;;;;;;;19.35;11.10;;;9.00;99.90;;;;;;5029048;28;20041;-55
2022/12/25 14:21:06;;;;;;;15.77;10.63;;;8.90;99.90;;;;;;4464733;22;20112;-54
2022/12/25 14:23:49;;;;;;;18.15;11.73;;;8.90;99.90;;;;;;5007346;28;20507;-54
2022/12/25 14:26:23;;;;;;;15.18;11.75;;;8.90;99.90;;;;;;5010773;28;20129;-55
2022/12/25 14:28:52;;;;;;;18.67;12.50;;;8.90;99.90;;;;;;5006689;28;20508;-53
2022/12/25 14:31:18;;;;;;;19.77;13.07;;;8.90;99.90;;;;;;5009641;28;20042;-55
2022/12/25 14:33:45;;;;;;;20.20;13.55;;;8.90;99.90;;;;;;5007938;28;20042;-55
2022/12/25 14:36:12;;;;;;;21.08;13.82;;;8.80;99.90;;;;;;5007170;28;20041;-54
2022/12/25 14:38:40;;;;;;;22.23;13.95;;;8.90;99.90;;;;;;5012473;28;20042;-55
2022/12/25 14:41:32;;;;;;;20.23;14.00;;;8.80;99.90;;;;;;5013969;28;20096;-53
2022/12/25 14:44:00;;;;;;;18.95;14.43;;;8.90;99.90;;;;;;5011714;28;20069;-51